Time;durP1;ratioP1;P1;durP2;ratioP2;P2;SDS_P1;SDS_P2;PMS_P1;PMS_P2;Temp;Humidity;BMP_temperature;BMP_pressure;BME280_temperature;BME280_humidity;BME280_pressure;Samples;Min_cycle;Max_cycle;Signal;HPM_P1;HPM_P2
2023/03/15 00:01:03;;;;;;;0.60;0.43;;;6.20;99.90;;;;;;4984956;28;20239;-70
2023/03/15 00:03:35;;;;;;;0.60;0.40;;;6.20;99.90;;;;;;4984105;28;20612;-70
2023/03/15 00:06:05;;;;;;;0.70;0.50;;;6.30;99.90;;;;;;4981707;28;20303;-70
2023/03/15 00:08:33;;;;;;;1.55;0.47;;;6.30;99.90;;;;;;4982556;28;20723;-69
2023/03/15 00:11:02;;;;;;;0.70;0.50;;;6.40;99.90;;;;;;4984817;28;20219;-70
2023/03/15 00:13:31;;;;;;;0.70;0.50;;;6.20;99.90;;;;;;4983925;28;20215;-71
2023/03/15 00:16:02;;;;;;;0.65;0.55;;;6.10;99.90;;;;;;4981114;28;20790;-71
2023/03/15 00:18:30;;;;;;;2.45;0.50;;;6.10;99.90;;;;;;4981920;28;20227;-69
2023/03/15 00:20:58;;;;;;;0.60;0.50;;;6.10;99.90;;;;;;4984499;28;20235;-71
2023/03/15 00:23:27;;;;;;;1.15;0.50;;;6.00;99.90;;;;;;4984288;28;20639;-72
2023/03/15 00:25:55;;;;;;;0.57;0.43;;;6.00;99.90;;;;;;4973454;28;20208;-70
2023/03/15 00:28:23;;;;;;;0.60;0.50;;;5.90;99.90;;;;;;4973486;28;20295;-69
2023/03/15 00:31:02;;;;;;;0.57;0.40;;;5.90;99.90;;;;;;4984627;28;20210;-69
2023/03/15 00:33:33;;;;;;;0.68;0.60;;;5.90;99.90;;;;;;4983940;28;20207;-69
2023/03/15 00:36:04;;;;;;;0.60;0.60;;;5.70;99.90;;;;;;4981480;28;20319;-70
2023/03/15 00:38:34;;;;;;;0.60;0.40;;;5.40;99.90;;;;;;4981807;28;20641;-70
2023/03/15 00:41:05;;;;;;;0.68;0.57;;;4.90;99.90;;;;;;4984457;28;20292;-69
2023/03/15 00:43:33;;;;;;;0.60;0.57;;;4.60;99.90;;;;;;4983006;28;20215;-70
2023/03/15 00:46:01;;;;;;;0.60;0.50;;;4.30;99.90;;;;;;4980831;28;20790;-70
2023/03/15 00:48:29;;;;;;;1.23;0.60;;;4.10;99.90;;;;;;4981032;28;20209;-69
2023/03/15 00:51:09;;;;;;;0.75;0.75;;;4.00;99.90;;;;;;4983604;28;20255;-69
2023/03/15 00:53:40;;;;;;;0.65;0.60;;;4.00;99.90;;;;;;4983745;28;20215;-69
2023/03/15 00:56:10;;;;;;;0.70;0.45;;;4.10;99.90;;;;;;4966728;28;20323;-69
2023/03/15 00:58:39;;;;;;;0.60;0.40;;;4.10;99.90;;;;;;4973834;28;20590;-70
2023/03/15 01:01:08;;;;;;;0.70;0.50;;;4.30;99.90;;;;;;4983978;28;20250;-69
2023/03/15 01:03:36;;;;;;;0.90;0.50;;;4.50;99.90;;;;;;4982629;28;20208;-69
2023/03/15 01:06:08;;;;;;;1.10;0.60;;;4.60;99.90;;;;;;4980581;28;20314;-70
2023/03/15 01:08:36;;;;;;;0.60;0.40;;;4.50;99.90;;;;;;4981359;28;20215;-69
2023/03/15 01:11:07;;;;;;;0.88;0.57;;;4.60;99.90;;;;;;4983255;28;20209;-69
2023/03/15 01:13:36;;;;;;;3.20;1.45;;;4.70;99.90;;;;;;4982590;28;20208;-70
2023/03/15 01:16:05;;;;;;;0.70;0.52;;;4.90;99.90;;;;;;4980115;28;20769;-71
2023/03/15 01:18:33;;;;;;;0.70;0.50;;;4.80;99.90;;;;;;4980715;28;20236;-70
2023/03/15 01:21:01;;;;;;;1.15;0.50;;;4.90;99.90;;;;;;4983573;28;20211;-71
2023/03/15 01:23:29;;;;;;;1.90;1.13;;;5.00;99.90;;;;;;4983509;28;20236;-70
2023/03/15 01:26:00;;;;;;;0.88;0.40;;;4.90;99.90;;;;;;4970937;28;20582;-71
2023/03/15 01:28:29;;;;;;;0.50;0.40;;;4.80;99.90;;;;;;4972325;28;20214;-70
2023/03/15 01:30:58;;;;;;;1.00;0.70;;;4.50;99.90;;;;;;4972697;28;20667;-70
2023/03/15 01:33:27;;;;;;;0.80;0.55;;;4.00;99.90;;;;;;4979864;28;20240;-70
2023/03/15 01:35:59;;;;;;;0.50;0.30;;;3.90;99.90;;;;;;4983222;28;20633;-71
2023/03/15 01:38:28;;;;;;;0.60;0.40;;;4.10;99.90;;;;;;4983429;28;20624;-71
2023/03/15 01:40:56;;;;;;;3.28;1.35;;;4.20;99.90;;;;;;4983541;28;20216;-71
2023/03/15 01:43:25;;;;;;;0.80;0.55;;;4.40;99.90;;;;;;4980239;28;20235;-71
2023/03/15 01:46:01;;;;;;;0.60;0.43;;;4.50;99.90;;;;;;4982712;28;20292;-71
2023/03/15 01:48:33;;;;;;;0.70;0.47;;;4.70;99.90;;;;;;4983411;28;20211;-70
2023/03/15 01:51:06;;;;;;;0.60;0.50;;;4.80;99.90;;;;;;4983408;28;20219;-70
2023/03/15 01:53:35;;;;;;;0.70;0.40;;;4.80;99.90;;;;;;4982611;28;20212;-71
2023/03/15 01:56:06;;;;;;;0.60;0.52;;;4.80;99.90;;;;;;4971736;28;20232;-69
2023/03/15 01:58:35;;;;;;;0.93;0.40;;;4.90;99.90;;;;;;4979758;28;20214;-70
2023/03/15 02:01:06;;;;;;;1.70;1.05;;;4.90;99.90;;;;;;4979919;28;20229;-71
2023/03/15 02:03:37;;;;;;;0.60;0.40;;;4.90;99.90;;;;;;4983103;28;20213;-70
2023/03/15 02:06:08;;;;;;;0.70;0.52;;;4.90;99.90;;;;;;4987282;28;20603;-71
2023/03/15 02:08:39;;;;;;;1.15;0.50;;;4.80;99.90;;;;;;4986562;28;20296;-71
2023/03/15 02:11:07;;;;;;;0.70;0.60;;;4.70;99.90;;;;;;4983705;28;20289;-71
2023/03/15 02:13:36;;;;;;;0.90;0.80;;;4.70;99.90;;;;;;4983589;28;20295;-71
2023/03/15 02:16:06;;;;;;;0.60;0.50;;;4.60;99.90;;;;;;4986883;28;20655;-71
2023/03/15 02:18:35;;;;;;;0.60;0.50;;;4.60;99.90;;;;;;4986737;28;20595;-69
2023/03/15 02:21:14;;;;;;;0.60;0.47;;;4.60;99.90;;;;;;4983746;28;20299;-70
2023/03/15 02:23:43;;;;;;;1.65;0.40;;;4.70;99.90;;;;;;4984336;28;20213;-71
2023/03/15 02:26:19;;;;;;;0.60;0.50;;;4.80;99.90;;;;;;4969239;28;20224;-70
2023/03/15 02:28:50;;;;;;;1.00;0.60;;;4.70;99.90;;;;;;4977217;28;20566;-69
2023/03/15 02:31:18;;;;;;;0.93;0.63;;;4.50;99.90;;;;;;4986801;28;20284;-71
2023/03/15 02:33:48;;;;;;;0.80;0.70;;;4.30;99.90;;;;;;4984729;28;20590;-71
2023/03/15 02:36:19;;;;;;;0.50;0.40;;;4.20;99.90;;;;;;4983245;28;20242;-71
2023/03/15 02:38:48;;;;;;;0.68;0.50;;;4.10;99.90;;;;;;4985044;28;20290;-70
2023/03/15 02:41:19;;;;;;;1.23;0.60;;;4.00;99.90;;;;;;4986664;28;20217;-70
2023/03/15 02:43:52;;;;;;;0.60;0.50;;;3.90;99.90;;;;;;4984307;28;20691;-70
2023/03/15 02:46:25;;;;;;;0.70;0.70;;;3.80;99.90;;;;;;4983513;28;20630;-70
2023/03/15 02:48:54;;;;;;;0.60;0.40;;;3.80;99.90;;;;;;4985359;28;20271;-70
2023/03/15 02:51:24;;;;;;;0.98;0.77;;;3.60;99.90;;;;;;4986414;28;20213;-69
2023/03/15 02:53:52;;;;;;;1.50;0.80;;;3.40;99.90;;;;;;4983511;28;20582;-70
2023/03/15 02:56:20;;;;;;;1.23;0.90;;;3.30;99.90;;;;;;4974819;28;20230;-68
2023/03/15 02:58:48;;;;;;;0.80;0.50;;;3.30;99.90;;;;;;4984391;28;20210;-70
2023/03/15 03:01:18;;;;;;;1.10;0.52;;;3.20;99.90;;;;;;4986179;28;20283;-69
2023/03/15 03:03:47;;;;;;;0.60;0.50;;;3.00;99.90;;;;;;4984261;28;20206;-69
2023/03/15 03:06:17;;;;;;;0.60;0.50;;;3.10;99.90;;;;;;4982738;28;20232;-69
2023/03/15 03:08:46;;;;;;;0.70;0.50;;;3.10;99.90;;;;;;4983961;28;20209;-69
2023/03/15 03:11:14;;;;;;;1.08;0.63;;;2.90;99.90;;;;;;4985983;28;20207;-70
2023/03/15 03:13:42;;;;;;;0.68;0.52;;;3.00;99.90;;;;;;4983952;28;20242;-69
2023/03/15 03:16:10;;;;;;;0.98;0.70;;;3.10;99.90;;;;;;4982355;28;20285;-69
2023/03/15 03:18:41;;;;;;;1.65;0.65;;;3.00;99.90;;;;;;4982833;28;20244;-69
2023/03/15 03:21:09;;;;;;;0.90;0.60;;;3.00;99.90;;;;;;4985833;28;20227;-68
2023/03/15 03:23:37;;;;;;;1.38;0.60;;;3.20;99.90;;;;;;4985399;28;20299;-70
2023/03/15 03:26:15;;;;;;;0.90;0.70;;;3.40;99.90;;;;;;4982267;28;20731;-70
2023/03/15 03:28:45;;;;;;;0.60;0.40;;;3.30;99.90;;;;;;4975224;28;20291;-70
2023/03/15 03:31:17;;;;;;;0.80;0.60;;;3.50;99.90;;;;;;4985805;28;20218;-70
2023/03/15 03:33:47;;;;;;;1.05;0.95;;;3.50;99.90;;;;;;4984142;28;20233;-70
2023/03/15 03:36:15;;;;;;;0.70;0.47;;;3.40;99.90;;;;;;4982439;28;20241;-70
2023/03/15 03:38:45;;;;;;;0.50;0.40;;;3.40;99.90;;;;;;4982746;28;20210;-70
2023/03/15 03:41:14;;;;;;;1.02;0.77;;;3.60;99.90;;;;;;4985294;28;20219;-70
2023/03/15 03:43:42;;;;;;;0.70;0.60;;;3.60;99.90;;;;;;4984458;28;20404;-70
2023/03/15 03:46:10;;;;;;;0.88;0.50;;;3.60;99.90;;;;;;4982028;28;20238;-70
2023/03/15 03:48:37;;;;;;;0.90;0.70;;;3.70;99.90;;;;;;4981998;28;20206;-71
2023/03/15 03:51:07;;;;;;;1.13;0.60;;;3.60;99.90;;;;;;4974389;28;20198;-70
2023/03/15 03:53:35;;;;;;;2.05;0.70;;;3.60;99.90;;;;;;4981710;28;20204;-70
2023/03/15 03:56:04;;;;;;;0.70;0.50;;;3.30;99.90;;;;;;4982154;28;20229;-70
2023/03/15 03:58:32;;;;;;;0.60;0.50;;;3.30;99.90;;;;;;4973860;28;20209;-70
2023/03/15 04:01:00;;;;;;;0.95;0.82;;;3.20;99.90;;;;;;4984478;28;20226;-70
2023/03/15 04:03:28;;;;;;;1.00;0.70;;;3.20;99.90;;;;;;4984797;28;20211;-70
2023/03/15 04:05:57;;;;;;;0.70;0.65;;;3.20;99.90;;;;;;4982396;28;20267;-70
2023/03/15 04:08:27;;;;;;;0.80;0.70;;;3.30;99.90;;;;;;4981979;28;20289;-71
2023/03/15 04:10:56;;;;;;;0.70;0.65;;;3.30;99.90;;;;;;4983451;28;20199;-70
2023/03/15 04:13:24;;;;;;;1.95;0.50;;;3.40;99.90;;;;;;4984653;28;20295;-71
2023/03/15 04:15:56;;;;;;;1.08;0.85;;;3.40;99.90;;;;;;4982740;28;20290;-70
2023/03/15 04:18:25;;;;;;;4.25;0.65;;;3.50;99.90;;;;;;5003487;23;20326;-63
2023/03/15 04:20:53;;;;;;;1.00;0.70;;;3.40;99.90;;;;;;4982876;28;20303;-64
2023/03/15 04:23:23;;;;;;;1.25;0.60;;;3.20;99.90;;;;;;4981753;28;20616;-63
2023/03/15 04:25:54;;;;;;;0.70;0.57;;;3.20;99.90;;;;;;4981345;28;20292;-64
2023/03/15 04:28:22;;;;;;;0.90;0.70;;;3.30;99.90;;;;;;4981782;28;20814;-64
2023/03/15 04:30:51;;;;;;;0.70;0.65;;;3.20;99.90;;;;;;4982834;28;20211;-64
2023/03/15 04:33:23;;;;;;;1.15;0.60;;;3.30;99.90;;;;;;4984579;28;20297;-64
2023/03/15 04:35:51;;;;;;;2.38;0.70;;;3.40;99.90;;;;;;4983433;28;20239;-64
2023/03/15 04:38:25;;;;;;;0.70;0.60;;;3.50;99.90;;;;;;4981600;28;20599;-63
2023/03/15 04:40:55;;;;;;;0.98;0.70;;;3.60;99.90;;;;;;4982622;28;20219;-63
2023/03/15 04:43:23;;;;;;;0.75;0.60;;;3.40;99.90;;;;;;4984550;28;20216;-63
2023/03/15 04:45:51;;;;;;;0.70;0.60;;;3.60;99.90;;;;;;4983152;28;20217;-63
2023/03/15 04:48:19;;;;;;;0.90;0.90;;;3.50;99.90;;;;;;4981176;28;20596;-63
2023/03/15 04:50:47;;;;;;;0.50;0.40;;;3.20;99.90;;;;;;4981926;28;20290;-63
2023/03/15 04:53:14;;;;;;;0.70;0.45;;;3.10;99.90;;;;;;4984415;28;20238;-63
2023/03/15 04:55:42;;;;;;;0.70;0.65;;;3.20;99.90;;;;;;4975015;28;20214;-63
2023/03/15 04:58:11;;;;;;;0.90;0.75;;;3.30;99.90;;;;;;4972864;28;20227;-63
2023/03/15 05:00:39;;;;;;;0.93;0.57;;;3.40;99.90;;;;;;4972786;28;20270;-63
2023/03/15 05:03:07;;;;;;;0.70;0.50;;;3.50;99.90;;;;;;4973021;28;20212;-64
2023/03/15 05:05:35;;;;;;;0.73;0.73;;;3.50;99.90;;;;;;4973031;28;20207;-63
2023/03/15 05:08:03;;;;;;;1.27;0.70;;;3.40;99.90;;;;;;4973349;28;20235;-64
2023/03/15 05:10:32;;;;;;;1.15;0.60;;;3.40;99.90;;;;;;4973252;28;20413;-64
2023/03/15 05:12:59;;;;;;;0.60;0.40;;;3.30;99.90;;;;;;4973124;28;20214;-63
2023/03/15 05:15:29;;;;;;;0.70;0.60;;;3.30;99.90;;;;;;4972610;28;20259;-63
2023/03/15 05:17:57;;;;;;;0.68;0.50;;;3.30;99.90;;;;;;4972261;28;20339;-64
2023/03/15 05:20:24;;;;;;;0.60;0.40;;;3.50;99.90;;;;;;4972652;28;20223;-64
2023/03/15 05:22:53;;;;;;;3.28;0.60;;;3.10;99.90;;;;;;4971939;28;20212;-65
2023/03/15 05:25:23;;;;;;;0.80;0.80;;;3.20;99.90;;;;;;4986726;28;20212;-64
2023/03/15 05:27:51;;;;;;;0.93;0.80;;;3.40;99.90;;;;;;4978943;28;20231;-64
2023/03/15 05:30:20;;;;;;;1.30;1.20;;;3.80;99.90;;;;;;4976905;28;20289;-64
2023/03/15 05:32:51;;;;;;;0.80;0.50;;;3.70;99.90;;;;;;4983017;28;20208;-65
2023/03/15 05:35:19;;;;;;;0.75;0.57;;;3.40;99.90;;;;;;4980583;28;20209;-64
2023/03/15 05:37:47;;;;;;;0.75;0.55;;;3.50;99.90;;;;;;4980403;28;20569;-65
2023/03/15 05:40:15;;;;;;;1.02;0.70;;;3.70;99.90;;;;;;4987405;28;20233;-64
2023/03/15 05:42:43;;;;;;;1.00;0.57;;;3.60;99.90;;;;;;4980604;28;20224;-64
2023/03/15 05:45:11;;;;;;;0.65;0.52;;;3.50;99.90;;;;;;4980306;28;20209;-63
2023/03/15 05:47:39;;;;;;;1.05;0.70;;;3.00;99.90;;;;;;4979641;28;20226;-63
2023/03/15 05:50:09;;;;;;;1.08;0.65;;;2.80;99.90;;;;;;4980347;28;20262;-64
2023/03/15 05:52:37;;;;;;;0.80;0.70;;;2.70;99.90;;;;;;4979080;28;20213;-63
2023/03/15 05:55:05;;;;;;;0.70;0.70;;;2.50;99.90;;;;;;4972451;28;20952;-63
2023/03/15 05:57:33;;;;;;;0.80;0.55;;;2.50;99.90;;;;;;4972337;28;20231;-63
2023/03/15 06:00:02;;;;;;;1.10;0.50;;;2.80;99.90;;;;;;4982411;28;20211;-64
2023/03/15 06:02:30;;;;;;;1.23;0.57;;;2.60;99.90;;;;;;4982369;28;20646;-65
2023/03/15 06:04:57;;;;;;;0.60;0.60;;;2.80;99.90;;;;;;4980514;28;20881;-64
2023/03/15 06:07:27;;;;;;;2.45;0.60;;;2.90;99.90;;;;;;4980127;28;20232;-64
2023/03/15 06:09:54;;;;;;;0.80;0.50;;;2.60;99.90;;;;;;4981250;28;20241;-65
2023/03/15 06:12:22;;;;;;;0.60;0.50;;;2.50;99.90;;;;;;4983526;28;20573;-64
2023/03/15 06:14:50;;;;;;;0.70;0.60;;;2.30;99.90;;;;;;4982571;28;20212;-64
2023/03/15 06:17:18;;;;;;;0.60;0.60;;;2.00;99.90;;;;;;4976093;28;20246;-64
2023/03/15 06:19:47;;;;;;;1.15;0.82;;;2.00;99.90;;;;;;4983031;28;20212;-64
2023/03/15 06:22:18;;;;;;;0.88;0.70;;;2.00;99.90;;;;;;4978674;28;20261;-64
2023/03/15 06:24:48;;;;;;;1.08;0.80;;;1.90;99.90;;;;;;4979603;28;20237;-64
2023/03/15 06:27:20;;;;;;;0.70;0.70;;;1.80;99.90;;;;;;4976106;28;20228;-64
2023/03/15 06:29:49;;;;;;;0.80;0.50;;;1.80;99.90;;;;;;4974907;28;20274;-64
2023/03/15 06:32:17;;;;;;;0.88;0.68;;;1.70;99.90;;;;;;4974350;28;20636;-64
2023/03/15 06:34:45;;;;;;;1.35;0.80;;;1.70;99.90;;;;;;4973699;28;20286;-64
2023/03/15 06:37:12;;;;;;;0.60;0.60;;;1.70;99.90;;;;;;4971907;28;20216;-64
2023/03/15 06:39:45;;;;;;;0.90;0.68;;;1.80;99.90;;;;;;4975072;28;20633;-65
2023/03/15 06:42:14;;;;;;;2.03;0.95;;;2.00;99.90;;;;;;4971538;28;20223;-64
2023/03/15 06:44:43;;;;;;;0.85;0.50;;;2.10;99.90;;;;;;4985179;28;20286;-64
2023/03/15 06:47:11;;;;;;;1.33;1.10;;;2.10;99.90;;;;;;4980185;28;20231;-64
2023/03/15 06:49:39;;;;;;;1.25;1.10;;;2.00;99.90;;;;;;4982742;28;20698;-64
2023/03/15 06:52:08;;;;;;;9.15;3.17;;;1.90;99.90;;;;;;4976248;28;20207;-63
2023/03/15 06:54:36;;;;;;;1.45;1.35;;;1.80;99.90;;;;;;4987070;28;20202;-63
2023/03/15 06:57:04;;;;;;;1.10;1.00;;;1.80;99.90;;;;;;4976774;28;20270;-63
2023/03/15 06:59:34;;;;;;;3.75;1.60;;;1.70;99.90;;;;;;4986314;28;20237;-63
2023/03/15 07:02:02;;;;;;;2.75;1.77;;;1.70;99.90;;;;;;4984288;28;20235;-63
2023/03/15 07:04:30;;;;;;;1.17;1.08;;;1.60;99.90;;;;;;4982865;28;20257;-64
2023/03/15 07:06:57;;;;;;;1.33;0.80;;;1.70;99.90;;;;;;4983792;28;20249;-66
2023/03/15 07:09:26;;;;;;;0.93;0.82;;;1.80;99.90;;;;;;4986753;28;20211;-67
2023/03/15 07:11:53;;;;;;;1.33;1.10;;;4.80;99.90;;;;;;4982610;28;20300;-66
2023/03/15 07:14:21;;;;;;;0.75;0.75;;;5.80;99.90;;;;;;4985969;28;20212;-67
2023/03/15 07:16:50;;;;;;;0.82;0.70;;;4.60;99.90;;;;;;4977690;28;20242;-64
2023/03/15 07:19:18;;;;;;;1.33;0.95;;;3.60;99.90;;;;;;4982584;28;20710;-63
2023/03/15 07:21:46;;;;;;;3.25;1.42;;;3.00;99.90;;;;;;4982385;28;20311;-64
2023/03/15 07:24:14;;;;;;;2.85;1.65;;;2.50;99.90;;;;;;4982083;28;20283;-64
2023/03/15 07:26:42;;;;;;;1.48;0.82;;;2.40;99.90;;;;;;4974032;28;20208;-64
2023/03/15 07:29:10;;;;;;;1.00;0.90;;;2.30;99.90;;;;;;4984944;28;20638;-64
2023/03/15 07:31:38;;;;;;;1.13;0.93;;;2.40;99.90;;;;;;4985552;28;20210;-63
2023/03/15 07:34:07;;;;;;;1.27;1.02;;;2.60;99.90;;;;;;4983205;28;20666;-63
2023/03/15 07:36:35;;;;;;;1.10;1.00;;;2.60;99.90;;;;;;4982359;28;20297;-64
2023/03/15 07:39:03;;;;;;;1.08;1.02;;;2.70;99.90;;;;;;4983198;28;20205;-63
2023/03/15 07:41:34;;;;;;;1.35;1.25;;;2.90;99.90;;;;;;4985430;28;20199;-63
2023/03/15 07:44:02;;;;;;;1.33;0.82;;;3.20;99.90;;;;;;4983764;28;20218;-63
2023/03/15 07:46:30;;;;;;;1.42;1.33;;;3.50;99.90;;;;;;4982181;28;20686;-63
2023/03/15 07:48:57;;;;;;;1.08;0.77;;;3.70;99.90;;;;;;4982930;28;20250;-63
2023/03/15 07:51:27;;;;;;;1.05;0.93;;;3.70;99.90;;;;;;4984720;28;20216;-63
2023/03/15 07:53:54;;;;;;;1.45;0.93;;;3.60;99.90;;;;;;4984503;28;20669;-63
2023/03/15 07:56:22;;;;;;;2.03;1.00;;;3.60;99.90;;;;;;4981107;28;20286;-63
2023/03/15 07:58:50;;;;;;;0.63;0.63;;;3.50;99.90;;;;;;4981488;28;20710;-63
2023/03/15 08:01:18;;;;;;;0.70;0.68;;;3.40;99.90;;;;;;4973852;28;20208;-63
2023/03/15 08:03:46;;;;;;;0.65;0.57;;;3.30;99.90;;;;;;4981641;28;20215;-63
2023/03/15 08:06:14;;;;;;;1.08;0.98;;;3.30;99.90;;;;;;4984652;28;20207;-63
2023/03/15 08:08:43;;;;;;;0.80;0.60;;;3.40;99.90;;;;;;4984994;28;20233;-63
2023/03/15 08:11:11;;;;;;;1.10;0.85;;;3.40;99.90;;;;;;4982148;28;20213;-63
2023/03/15 08:13:40;;;;;;;0.85;0.85;;;3.30;99.90;;;;;;4981406;28;20215;-63
2023/03/15 08:16:08;;;;;;;0.80;0.70;;;3.20;99.90;;;;;;4983417;28;20249;-63
2023/03/15 08:18:36;;;;;;;0.90;0.77;;;3.20;99.90;;;;;;4984428;28;20341;-63
2023/03/15 08:21:04;;;;;;;1.08;0.90;;;3.20;99.90;;;;;;4982986;28;20248;-63
2023/03/15 08:23:32;;;;;;;0.90;0.80;;;3.30;99.90;;;;;;4981318;28;20620;-63
2023/03/15 08:26:01;;;;;;;1.15;1.00;;;3.40;99.90;;;;;;4972913;28;20202;-63
2023/03/15 08:28:29;;;;;;;1.00;0.90;;;3.50;99.90;;;;;;4977938;28;20226;-63
2023/03/15 08:30:57;;;;;;;0.90;0.70;;;3.60;99.90;;;;;;4983647;28;20289;-63
2023/03/15 08:33:28;;;;;;;1.27;0.70;;;3.60;99.90;;;;;;4981055;28;20238;-63
2023/03/15 08:35:56;;;;;;;4.32;1.30;;;3.60;99.90;;;;;;4981380;28;20297;-63
2023/03/15 08:38:25;;;;;;;0.70;0.57;;;3.60;99.90;;;;;;4984473;28;20652;-63
2023/03/15 08:40:56;;;;;;;0.90;0.70;;;3.70;99.90;;;;;;4984206;28;20208;-63
2023/03/15 08:43:25;;;;;;;1.05;0.95;;;3.70;99.90;;;;;;4973504;28;20339;-63
2023/03/15 08:45:53;;;;;;;1.35;1.08;;;3.80;99.90;;;;;;4980946;28;20289;-63
2023/03/15 08:48:52;;;;;;;1.20;0.60;;;3.80;99.90;;;;;;4974466;28;20236;-63
2023/03/15 08:51:24;;;;;;;1.00;0.90;;;4.30;99.90;;;;;;4980664;28;20631;-63
2023/03/15 08:53:52;;;;;;;1.05;0.90;;;4.50;99.90;;;;;;4980549;28;20257;-63
2023/03/15 08:56:20;;;;;;;0.88;0.88;;;4.80;99.90;;;;;;4972359;28;20206;-63
2023/03/15 08:58:49;;;;;;;1.55;1.10;;;5.00;99.90;;;;;;4979648;28;20231;-63
2023/03/15 09:01:17;;;;;;;0.73;0.60;;;5.20;99.90;;;;;;4980681;28;20216;-63
2023/03/15 09:03:45;;;;;;;0.75;0.70;;;5.40;99.90;;;;;;4980343;28;20240;-63
2023/03/15 09:06:13;;;;;;;1.35;0.82;;;5.50;99.90;;;;;;4982804;28;20204;-63
2023/03/15 09:08:41;;;;;;;0.85;0.85;;;5.70;99.90;;;;;;4983757;28;20243;-63
2023/03/15 09:11:09;;;;;;;2.53;0.98;;;5.80;99.90;;;;;;4981363;28;20299;-64
2023/03/15 09:13:37;;;;;;;0.85;0.85;;;6.10;99.90;;;;;;4980485;28;20240;-63
2023/03/15 09:16:06;;;;;;;0.88;0.77;;;6.30;99.90;;;;;;4981502;28;20241;-63
2023/03/15 09:18:34;;;;;;;1.98;0.95;;;6.70;99.90;;;;;;4983525;28;20525;-64
2023/03/15 09:21:02;;;;;;;0.60;0.60;;;6.80;99.90;;;;;;4982576;28;20213;-63
2023/03/15 09:23:30;;;;;;;0.93;0.82;;;6.90;99.90;;;;;;4980274;28;20221;-64
2023/03/15 09:25:58;;;;;;;0.93;0.70;;;6.80;99.90;;;;;;4972024;28;20300;-63
2023/03/15 09:28:26;;;;;;;0.80;0.60;;;6.70;99.90;;;;;;4976170;28;20232;-64
2023/03/15 09:30:54;;;;;;;5.80;1.38;;;6.80;99.90;;;;;;4983523;28;20214;-63
2023/03/15 09:33:23;;;;;;;0.80;0.80;;;6.90;99.90;;;;;;4980004;28;20215;-64
2023/03/15 09:35:51;;;;;;;1.13;0.57;;;7.20;99.90;;;;;;4980279;28;20241;-64
2023/03/15 09:38:20;;;;;;;1.10;0.52;;;7.50;99.90;;;;;;4982843;28;20605;-63
2023/03/15 09:40:48;;;;;;;0.60;0.60;;;7.60;99.90;;;;;;4983292;28;20209;-64
2023/03/15 09:43:46;;;;;;;0.70;0.52;;;7.80;99.90;;;;;;4980480;28;20351;-64
2023/03/15 09:46:26;;;;;;;0.60;0.40;;;8.20;99.90;;;;;;4982195;28;20217;-64
2023/03/15 09:49:01;;;;;;;0.70;0.60;;;8.10;99.90;;;;;;4983224;28;20256;-61
2023/03/15 09:51:36;;;;;;;0.60;0.50;;;8.10;99.90;;;;;;4972743;28;20215;-61
2023/03/15 09:54:08;;;;;;;0.60;0.50;;;8.50;99.90;;;;;;4979800;28;20226;-63
2023/03/15 09:56:39;;;;;;;0.60;0.50;;;8.60;99.90;;;;;;4971994;28;20206;-63
2023/03/15 09:59:10;;;;;;;0.63;0.50;;;8.60;99.90;;;;;;4979840;28;20209;-62
2023/03/15 10:01:40;;;;;;;0.60;0.40;;;8.60;99.90;;;;;;4979854;28;20671;-63
2023/03/15 10:04:14;;;;;;;0.60;0.40;;;8.20;99.90;;;;;;4981032;28;20234;-63
2023/03/15 10:06:47;;;;;;;0.60;0.50;;;7.90;99.90;;;;;;4983436;28;20235;-63
2023/03/15 10:09:20;;;;;;;0.60;0.50;;;8.00;99.90;;;;;;4981166;28;20215;-62
2023/03/15 10:12:02;;;;;;;0.50;0.40;;;7.90;99.90;;;;;;4979703;28;20292;-63
2023/03/15 10:14:57;;;;;;;0.60;0.40;;;7.80;99.90;;;;;;4979963;28;20617;-63
2023/03/15 10:17:36;;;;;;;1.33;0.63;;;7.70;99.90;;;;;;5002842;23;20244;-65
2023/03/15 10:20:10;;;;;;;0.60;0.50;;;7.50;99.90;;;;;;4979910;28;20749;-67
2023/03/15 10:22:44;;;;;;;0.98;0.50;;;7.30;99.90;;;;;;4982427;28;20208;-68
2023/03/15 10:25:17;;;;;;;0.60;0.40;;;6.90;99.90;;;;;;4985027;28;20250;-66
2023/03/15 10:27:49;;;;;;;0.80;0.40;;;6.80;99.90;;;;;;4975418;28;20754;-66
2023/03/15 10:30:20;;;;;;;0.57;0.40;;;6.60;99.90;;;;;;4985592;28;20698;-66
2023/03/15 10:32:54;;;;;;;0.50;0.40;;;6.20;99.90;;;;;;4986468;28;20271;-66
2023/03/15 10:35:23;;;;;;;0.80;0.70;;;6.00;99.90;;;;;;4983962;28;20200;-67
2023/03/15 10:37:51;;;;;;;0.60;0.50;;;5.90;99.90;;;;;;4983278;28;20235;-66
2023/03/15 10:40:41;;;;;;;0.50;0.40;;;6.30;99.90;;;;;;4985257;28;20292;-66
2023/03/15 10:43:19;;;;;;;0.60;0.60;;;7.00;99.90;;;;;;4985488;28;20216;-66
2023/03/15 10:45:59;;;;;;;0.60;0.40;;;7.50;99.90;;;;;;4983288;28;20249;-67
2023/03/15 10:48:27;;;;;;;0.60;0.47;;;8.10;99.90;;;;;;4982950;28;20316;-66
2023/03/15 10:51:00;;;;;;;0.50;0.40;;;8.60;99.90;;;;;;4982929;28;20295;-67
2023/03/15 10:53:28;;;;;;;0.77;0.50;;;8.80;99.90;;;;;;4983044;28;20217;-66
2023/03/15 10:56:01;;;;;;;0.63;0.60;;;9.20;99.90;;;;;;4977024;28;20676;-66
2023/03/15 10:58:40;;;;;;;0.60;0.40;;;9.70;99.90;;;;;;4971694;28;20233;-67
2023/03/15 11:01:26;;;;;;;0.50;0.40;;;10.20;99.90;;;;;;4974460;28;20293;-66
2023/03/15 11:04:09;;;;;;;0.50;0.40;;;10.60;99.90;;;;;;4974580;28;20219;-67
2023/03/15 11:06:42;;;;;;;0.50;0.30;;;11.00;99.90;;;;;;4974521;28;20717;-67
2023/03/15 11:09:13;;;;;;;0.50;0.40;;;11.20;99.90;;;;;;4982509;28;20232;-67
2023/03/15 11:11:59;;;;;;;0.60;0.40;;;11.20;99.90;;;;;;4974562;28;20682;-66
2023/03/15 11:14:33;;;;;;;0.50;0.40;;;11.60;99.90;;;;;;4974407;28;20732;-67
2023/03/15 11:17:04;;;;;;;0.50;0.30;;;11.80;99.90;;;;;;4974362;28;20292;-67
2023/03/15 11:19:35;;;;;;;0.50;0.30;;;11.50;99.90;;;;;;4936050;29;20212;-67
2023/03/15 11:22:05;;;;;;;0.50;0.40;;;10.70;99.90;;;;;;4935974;29;20593;-66
2023/03/15 11:24:33;;;;;;;0.50;0.30;;;10.70;99.90;;;;;;4942312;29;20623;-67
2023/03/15 11:27:09;;;;;;;0.50;0.30;;;10.50;99.90;;;;;;4947396;28;20618;-66
2023/03/15 11:29:38;;;;;;;0.57;0.45;;;10.00;99.90;;;;;;4935785;29;20726;-68
2023/03/15 11:32:13;;;;;;;0.52;0.38;;;9.60;99.90;;;;;;4935426;29;20214;-66
2023/03/15 11:34:46;;;;;;;0.50;0.30;;;9.60;99.90;;;;;;4935697;29;20294;-67
2023/03/15 11:37:20;;;;;;;0.60;0.43;;;9.70;99.90;;;;;;4935504;29;20216;-67
2023/03/15 11:39:55;;;;;;;0.50;0.40;;;10.20;99.90;;;;;;4935918;29;20220;-67
2023/03/15 11:42:43;;;;;;;0.60;0.40;;;10.90;99.90;;;;;;4935617;29;20204;-67
2023/03/15 11:45:17;;;;;;;0.50;0.30;;;11.50;99.90;;;;;;4935450;29;20323;-67
2023/03/15 11:47:50;;;;;;;0.50;0.30;;;11.60;99.90;;;;;;4935393;29;20232;-66
2023/03/15 11:50:18;;;;;;;0.50;0.40;;;11.70;99.90;;;;;;4935420;29;20216;-67
2023/03/15 11:52:51;;;;;;;0.50;0.30;;;12.00;99.90;;;;;;4935465;29;20647;-67
2023/03/15 11:55:24;;;;;;;0.50;0.30;;;12.30;99.90;;;;;;4947784;29;20207;-67
2023/03/15 11:57:52;;;;;;;0.50;0.30;;;12.90;99.90;;;;;;4954445;28;20236;-67
2023/03/15 12:00:50;;;;;;;0.50;0.30;;;13.50;99.90;;;;;;4936485;28;20294;-66
2023/03/15 12:03:39;;;;;;;0.50;0.30;;;13.40;99.90;;;;;;4931470;29;20242;-67
2023/03/15 12:06:13;;;;;;;0.50;0.40;;;13.00;99.90;;;;;;4934975;29;20568;-67
2023/03/15 12:08:49;;;;;;;0.60;0.40;;;12.50;99.90;;;;;;4935107;29;20317;-66
2023/03/15 12:11:37;;;;;;;0.50;0.35;;;12.00;99.90;;;;;;4934959;29;20215;-66
2023/03/15 12:14:21;;;;;;;0.88;0.60;;;12.40;99.90;;;;;;4934872;29;20220;-67
2023/03/15 12:16:49;;;;;;;0.50;0.30;;;12.80;99.90;;;;;;4935021;29;20215;-67
2023/03/15 12:19:19;;;;;;;0.50;0.30;;;12.50;99.50;;;;;;4978663;28;20242;-67
2023/03/15 12:21:49;;;;;;;0.50;0.35;;;11.70;99.90;;;;;;4984748;28;20208;-67
2023/03/15 12:24:23;;;;;;;0.50;0.40;;;11.10;99.90;;;;;;4979603;28;20582;-68
2023/03/15 12:27:00;;;;;;;0.50;0.30;;;10.80;99.90;;;;;;4981702;28;20207;-66
2023/03/15 12:29:31;;;;;;;0.50;0.30;;;10.40;99.90;;;;;;4984080;28;20280;-67
2023/03/15 12:32:06;;;;;;;0.50;0.40;;;10.30;99.90;;;;;;4984687;28;20292;-67
2023/03/15 12:34:42;;;;;;;0.60;0.50;;;10.40;99.90;;;;;;4973433;28;20202;-67
2023/03/15 12:37:16;;;;;;;0.50;0.40;;;11.10;99.90;;;;;;4981286;28;20269;-67
2023/03/15 12:39:49;;;;;;;0.60;0.40;;;12.20;99.90;;;;;;4984774;28;20204;-67
2023/03/15 12:43:06;;;;;;;0.50;0.40;;;12.50;99.90;;;;;;4982969;28;20292;-68
2023/03/15 12:45:48;;;;;;;0.60;0.52;;;12.70;99.90;;;;;;4972346;28;20225;-67
2023/03/15 12:48:24;;;;;;;1.83;1.00;;;12.50;99.90;;;;;;4981866;28;20241;-67
2023/03/15 12:51:13;;;;;;;0.50;0.40;;;12.80;99.90;;;;;;4984079;28;20575;-67
2023/03/15 12:53:47;;;;;;;0.50;0.30;;;13.60;99.90;;;;;;4973688;28;20206;-67
2023/03/15 12:56:49;;;;;;;0.50;0.30;;;13.30;98.10;;;;;;4970955;28;20217;-67
2023/03/15 12:59:24;;;;;;;0.50;0.30;;;12.60;99.10;;;;;;4982864;28;20233;-66
2023/03/15 13:01:53;;;;;;;0.70;0.60;;;11.80;99.30;;;;;;4978785;28;20202;-67
2023/03/15 13:04:21;;;;;;;0.50;0.35;;;11.50;99.90;;;;;;4982076;28;20210;-66
2023/03/15 13:07:10;;;;;;;0.50;0.30;;;11.50;99.90;;;;;;4980756;28;20234;-67
2023/03/15 13:09:57;;;;;;;0.50;0.30;;;11.90;99.90;;;;;;4980670;28;20297;-66
2023/03/15 13:12:32;;;;;;;0.60;0.40;;;12.60;98.10;;;;;;4982376;28;20202;-67
2023/03/15 13:15:06;;;;;;;0.70;0.60;;;13.70;97.10;;;;;;4983812;28;20213;-67